SBSP/CGH METAR and TAF weather

Enter ICAO airport designator
Station Type Date Time Source
SBSP METAR 2018/12/11 23:00 UTC NOAA

SBSP 112300Z 16008KT CAVOK 24/17 Q1022


Station Type Date Time Source
SBSP Decoded METAR 2018/12/11 23:00 UTC NOAA

Sao Paulo/Congonhas Aeroporto, Brazil (SBSP) 23-37S 046-39W 802M
Dec 11, 2018 - 06:00 PM EST / 2018.12.11 2300 UTC
Wind: from the SSE (160 degrees) at 9 MPH (8 KT):0
Visibility: greater than 7 mile(s):0
Temperature: 75 F (24 C)
Dew Point: 62 F (17 C)
Relative Humidity: 64%
Pressure (altimeter): 30.18 in. Hg (1022 hPa)
ob: SBSP 112300Z 16008KT CAVOK 24/17 Q1022
cycle: 23

Station Type Date Time Source
SBSP TAF 2018/12/11 18:27 UTC NOAA

TAF SBSP 111600Z 1118/1218 16010KT 9999 SCT040TN21/1208Z TX32/1217Z
BECMG 1120/1122 12007KT 8000 FEW015
FM120000 07005KT CAVOK
BECMG 1208/1210 02005KT FEW035
BECMG 1212/1214 32008KT SCT040
RMK PGG


Example: see airport list